createdAt,value
2018-01-24T00:01:02.621Z,10.70
2018-01-24T00:03:33.734Z,10.80
2018-01-24T00:06:07.287Z,10.90
2018-01-24T00:08:37.631Z,10.90
2018-01-24T00:11:08.770Z,11.00
2018-01-24T00:13:42.357Z,11.00
2018-01-24T00:16:14.959Z,11.00
2018-01-24T00:18:45.396Z,11.00
2018-01-24T00:21:15.294Z,11.00
2018-01-24T00:23:47.535Z,11.10
2018-01-24T00:26:17.615Z,11.10
2018-01-24T00:28:47.638Z,11.20
2018-01-24T00:31:18.642Z,11.20
2018-01-24T00:33:49.050Z,11.20
2018-01-24T00:36:18.877Z,11.20
2018-01-24T00:38:48.772Z,11.20
2018-01-24T00:41:19.720Z,11.30
2018-01-24T00:46:46.097Z,11.30
2018-01-24T00:49:17.525Z,11.30
2018-01-24T00:51:47.363Z,11.40
2018-01-24T00:54:18.422Z,11.30
2018-01-24T00:56:48.227Z,11.30
2018-01-24T00:59:20.273Z,11.20
2018-01-24T01:01:50.972Z,11.20
2018-01-24T01:04:20.898Z,11.20
2018-01-24T01:06:51.943Z,11.20
2018-01-24T01:09:22.186Z,11.20
2018-01-24T01:11:54.764Z,11.30
2018-01-24T01:14:25.202Z,11.30
2018-01-24T01:16:57.319Z,11.30
2018-01-24T01:19:27.515Z,11.30
2018-01-24T01:21:59.472Z,11.30
2018-01-24T01:24:32.604Z,11.30
2018-01-24T01:27:02.443Z,11.30
2018-01-24T01:29:34.428Z,11.30
2018-01-24T01:32:04.370Z,11.30
2018-01-24T01:34:34.475Z,11.30
2018-01-24T01:37:04.582Z,11.30
2018-01-24T01:39:37.284Z,11.40
2018-01-24T01:42:11.675Z,11.40
2018-01-24T01:44:43.880Z,11.40
2018-01-24T01:47:13.967Z,11.40
2018-01-24T01:49:43.914Z,11.40
2018-01-24T01:52:16.493Z,11.40
2018-01-24T01:54:46.687Z,11.40
2018-01-24T01:57:16.447Z,11.40
2018-01-24T01:59:46.726Z,11.40
2018-01-24T02:02:16.365Z,11.50
2018-01-24T02:04:46.557Z,11.50
2018-01-24T02:07:16.733Z,11.50
2018-01-24T02:09:47.137Z,11.50
2018-01-24T02:12:17.555Z,11.50
2018-01-24T02:14:47.166Z,11.50
2018-01-24T02:17:19.012Z,11.50
2018-01-24T02:19:51.089Z,11.40
2018-01-24T02:22:22.276Z,11.50
2018-01-24T02:24:58.524Z,11.50
2018-01-24T02:27:29.171Z,11.50
2018-01-24T02:29:59.805Z,11.50
2018-01-24T02:32:31.971Z,11.50
2018-01-24T02:35:02.726Z,11.60
2018-01-24T02:37:32.878Z,11.60
2018-01-24T02:40:02.547Z,11.60
2018-01-24T02:42:35.343Z,11.60
2018-01-24T02:45:05.377Z,11.60
2018-01-24T02:47:34.971Z,11.60
2018-01-24T02:50:05.853Z,11.60
2018-01-24T02:52:35.892Z,11.60
2018-01-24T02:55:05.806Z,11.60
2018-01-24T02:57:37.019Z,11.70
2018-01-24T03:00:08.024Z,11.60
2018-01-24T03:02:37.641Z,11.70
2018-01-24T03:05:07.750Z,11.60
2018-01-24T03:07:37.618Z,11.70
2018-01-24T03:10:13.715Z,11.70
2018-01-24T03:12:43.837Z,11.60
2018-01-24T03:15:14.394Z,11.60
2018-01-24T03:17:44.097Z,11.60
2018-01-24T03:20:13.647Z,11.60
2018-01-24T03:22:43.284Z,11.60
2018-01-24T03:25:12.908Z,11.70
2018-01-24T03:27:42.552Z,11.70
2018-01-24T03:30:23.052Z,11.70
2018-01-24T03:32:53.392Z,11.70
2018-01-24T03:35:24.053Z,11.80
2018-01-24T03:37:53.723Z,11.70
2018-01-24T03:40:24.764Z,11.80
2018-01-24T03:43:00.269Z,11.80
2018-01-24T03:45:31.709Z,11.80
2018-01-24T03:48:02.420Z,11.90
2018-01-24T03:50:32.668Z,11.90
2018-01-24T03:53:04.960Z,11.90
2018-01-24T03:55:35.237Z,11.90
2018-01-24T03:58:05.444Z,11.90
2018-01-24T04:00:35.600Z,12.00
2018-01-24T04:03:05.480Z,12.00
2018-01-24T04:05:35.959Z,11.90
2018-01-24T04:08:06.116Z,11.90
2018-01-24T04:10:36.798Z,12.00
2018-01-24T04:13:07.053Z,11.90
2018-01-24T04:15:37.632Z,11.90
2018-01-24T04:18:07.312Z,11.90
2018-01-24T04:20:37.918Z,12.00
2018-01-24T04:23:07.746Z,12.00
2018-01-24T04:25:38.372Z,12.00
2018-01-24T04:28:08.972Z,12.10
2018-01-24T04:30:39.419Z,12.00
2018-01-24T04:33:09.138Z,12.10
2018-01-24T04:35:39.934Z,12.10
2018-01-24T04:38:09.722Z,12.00
2018-01-24T04:40:39.468Z,12.10
2018-01-24T04:43:09.793Z,12.00
2018-01-24T04:45:39.813Z,12.00
2018-01-24T04:48:09.405Z,12.00
2018-01-24T04:50:39.339Z,11.90
2018-01-24T04:53:08.980Z,12.00
2018-01-24T04:55:39.448Z,11.90
2018-01-24T04:58:09.243Z,11.90
2018-01-24T05:00:39.451Z,11.90
2018-01-24T05:03:09.034Z,11.90
2018-01-24T05:05:39.535Z,11.80
2018-01-24T05:08:09.417Z,11.80
2018-01-24T05:10:39.729Z,11.90
2018-01-24T05:13:10.447Z,11.90
2018-01-24T05:15:40.716Z,11.90
2018-01-24T05:18:10.168Z,11.90
2018-01-24T05:20:40.875Z,11.90
2018-01-24T05:23:10.364Z,11.90
2018-01-24T05:25:40.241Z,11.90
2018-01-24T05:28:09.841Z,11.90
2018-01-24T05:30:39.704Z,11.80
2018-01-24T05:33:09.316Z,11.80
2018-01-24T05:35:39.896Z,11.80
2018-01-24T05:38:10.495Z,11.80
2018-01-24T05:40:40.504Z,11.80
2018-01-24T05:43:10.668Z,11.80
2018-01-24T05:45:40.642Z,11.80
2018-01-24T05:48:10.453Z,11.70
2018-01-24T05:50:40.344Z,11.70
2018-01-24T05:53:10.106Z,11.60
2018-01-24T05:55:40.493Z,11.60
2018-01-24T05:58:10.171Z,11.50
2018-01-24T06:00:39.632Z,11.50
2018-01-24T06:03:09.303Z,11.50
2018-01-24T06:05:39.116Z,11.50
2018-01-24T06:08:08.888Z,11.50
2018-01-24T06:10:38.494Z,11.50
2018-01-24T06:13:08.624Z,11.50
2018-01-24T06:15:38.780Z,11.50
2018-01-24T06:18:08.407Z,11.40
2018-01-24T06:20:37.829Z,11.40
2018-01-24T06:23:08.113Z,11.30
2018-01-24T06:25:38.144Z,11.30
2018-01-24T06:28:07.724Z,11.30
2018-01-24T06:30:39.650Z,11.30
2018-01-24T06:33:09.507Z,11.30
2018-01-24T06:35:39.261Z,11.20
2018-01-24T06:38:09.776Z,11.20
2018-01-24T06:40:39.502Z,11.20
2018-01-24T06:43:10.206Z,11.20
2018-01-24T06:45:40.016Z,11.20
2018-01-24T06:48:09.711Z,11.20
2018-01-24T06:50:39.534Z,11.30
2018-01-24T06:53:10.253Z,11.30
2018-01-24T06:55:40.689Z,11.20
2018-01-24T06:58:10.770Z,11.20
2018-01-24T07:00:41.610Z,11.20
2018-01-24T07:03:11.793Z,11.30
2018-01-24T07:05:42.339Z,11.30
2018-01-24T07:08:12.988Z,11.40
2018-01-24T07:10:43.897Z,11.40
2018-01-24T07:15:22.172Z,11.40
2018-01-24T07:17:51.742Z,11.50
2018-01-24T07:20:21.898Z,11.60
2018-01-24T07:22:51.909Z,11.60
2018-01-24T07:25:22.386Z,11.60
2018-01-24T07:27:52.865Z,11.60
2018-01-24T07:30:24.923Z,11.60
2018-01-24T07:32:55.572Z,11.60
2018-01-24T07:35:25.711Z,11.60
2018-01-24T07:37:56.443Z,11.70
2018-01-24T07:40:27.744Z,11.70
2018-01-24T07:42:58.703Z,11.70
2018-01-24T07:45:29.505Z,11.70
2018-01-24T07:48:00.501Z,11.70
2018-01-24T07:50:31.174Z,11.70
2018-01-24T07:53:02.370Z,11.70
2018-01-24T07:55:32.608Z,11.80
2018-01-24T07:58:07.784Z,11.80
2018-01-24T08:00:38.604Z,11.90
2018-01-24T08:03:09.133Z,11.90
2018-01-24T08:05:44.119Z,11.90
2018-01-24T08:08:49.573Z,11.80
2018-01-24T08:11:27.873Z,11.90
2018-01-24T08:13:59.584Z,12.00
2018-01-24T08:16:30.451Z,12.10
2018-01-24T08:19:01.472Z,12.10
2018-01-24T08:21:31.823Z,12.10
2018-01-24T08:24:04.248Z,12.10
2018-01-24T08:26:35.503Z,12.10
2018-01-24T08:29:05.500Z,12.10
2018-01-24T08:31:35.696Z,12.10
2018-01-24T08:34:17.475Z,12.10
2018-01-24T08:36:49.725Z,12.20
2018-01-24T08:39:20.494Z,12.20
2018-01-24T08:41:50.237Z,12.30
2018-01-24T08:44:21.038Z,12.30
2018-01-24T08:46:50.883Z,12.40
2018-01-24T08:49:20.641Z,12.50
2018-01-24T08:51:51.266Z,12.60
2018-01-24T08:54:21.477Z,12.60
2018-01-24T08:56:51.737Z,12.60
2018-01-24T08:59:21.761Z,12.70
2018-01-24T09:01:51.853Z,12.80
2018-01-24T09:04:27.088Z,12.80
2018-01-24T09:06:57.004Z,12.80
2018-01-24T09:09:27.579Z,13.00
2018-01-24T09:11:57.410Z,12.90
2018-01-24T09:14:28.176Z,12.90
2018-01-24T09:16:59.291Z,13.00
2018-01-24T09:19:32.623Z,13.10
2018-01-24T09:22:03.666Z,13.30
2018-01-24T09:24:33.469Z,13.20
2018-01-24T09:27:03.896Z,13.30
2018-01-24T09:29:34.255Z,13.40
2018-01-24T09:32:04.265Z,13.40
2018-01-24T09:34:44.742Z,13.50
2018-01-24T09:37:14.625Z,13.50
2018-01-24T09:39:45.254Z,13.70
2018-01-24T09:42:14.924Z,13.70
2018-01-24T09:44:44.756Z,13.70
2018-01-24T09:47:16.087Z,13.90
2018-01-24T09:49:45.986Z,13.90
2018-01-24T09:52:16.448Z,14.00
2018-01-24T09:54:46.696Z,14.20
2018-01-24T09:57:17.696Z,14.30
2018-01-24T09:59:48.394Z,14.40
2018-01-24T10:02:18.972Z,14.50
2018-01-24T10:04:50.050Z,14.60
2018-01-24T10:07:19.804Z,14.70
2018-01-24T10:09:49.598Z,14.60
2018-01-24T10:12:20.834Z,14.60
2018-01-24T10:14:51.475Z,14.60
2018-01-24T10:17:22.014Z,14.60
2018-01-24T10:19:52.253Z,14.50
2018-01-24T10:22:22.307Z,14.50
2018-01-24T10:24:52.313Z,14.50
2018-01-24T10:27:23.060Z,14.60
2018-01-24T10:29:53.881Z,14.60
2018-01-24T10:32:38.906Z,14.60
2018-01-24T10:35:11.434Z,14.50
2018-01-24T10:37:42.682Z,14.50
2018-01-24T10:40:13.750Z,14.30
2018-01-24T10:42:43.737Z,14.30
2018-01-24T10:45:14.408Z,14.30
2018-01-24T10:47:45.260Z,14.30
2018-01-24T10:50:18.524Z,14.30
2018-01-24T10:52:51.245Z,14.40
2018-01-24T10:55:21.765Z,14.40
2018-01-24T10:57:52.418Z,14.40
2018-01-24T11:00:27.956Z,14.50
2018-01-24T11:02:58.863Z,14.50
2018-01-24T11:05:29.276Z,14.50
2018-01-24T11:08:02.235Z,14.50
2018-01-24T11:10:44.249Z,14.50
2018-01-24T11:13:23.977Z,14.50
2018-01-24T11:15:56.055Z,14.50
2018-01-24T11:18:28.122Z,14.50
2018-01-24T11:21:01.130Z,14.50
2018-01-24T11:23:32.003Z,14.50
2018-01-24T11:26:02.472Z,14.60
2018-01-24T11:28:33.240Z,14.60
2018-01-24T11:31:03.332Z,14.60
2018-01-24T11:33:34.480Z,14.70
2018-01-24T11:36:12.949Z,14.80
2018-01-24T11:38:44.159Z,14.80
2018-01-24T11:41:17.003Z,14.80
2018-01-24T11:43:48.375Z,14.80
2018-01-24T11:46:19.034Z,14.80
2018-01-24T11:48:49.226Z,14.80
2018-01-24T11:51:20.278Z,14.70
2018-01-24T11:53:50.965Z,14.70
2018-01-24T11:56:21.641Z,14.70
2018-01-24T11:59:03.189Z,14.70
2018-01-24T12:01:41.085Z,14.80
2018-01-24T12:04:11.554Z,14.70
2018-01-24T12:06:42.355Z,14.80
2018-01-24T12:09:12.696Z,14.90
2018-01-24T12:11:48.893Z,14.80
2018-01-24T12:14:19.132Z,14.90
2018-01-24T12:17:17.996Z,14.90
2018-01-24T12:20:08.928Z,15.00
2018-01-24T12:22:42.535Z,14.90
2018-01-24T12:25:14.176Z,14.80
2018-01-24T12:27:53.636Z,14.70
2018-01-24T12:30:31.804Z,14.70
2018-01-24T12:33:03.036Z,14.70
2018-01-24T12:35:33.801Z,14.70
2018-01-24T12:38:04.061Z,14.70
2018-01-24T12:40:33.919Z,14.60
2018-01-24T12:43:07.911Z,14.60
2018-01-24T12:45:39.499Z,14.60
2018-01-24T12:48:23.150Z,14.50
2018-01-24T12:50:54.409Z,14.50
2018-01-24T12:53:25.036Z,14.60
2018-01-24T12:56:01.305Z,14.50
2018-01-24T12:59:01.823Z,14.50
2018-01-24T13:01:35.275Z,14.50
2018-01-24T13:04:08.186Z,14.60
2018-01-24T13:07:00.992Z,14.60
2018-01-24T13:10:05.624Z,14.60
2018-01-24T13:12:39.275Z,14.70
2018-01-24T13:15:10.232Z,14.70
2018-01-24T13:17:57.702Z,14.60
2018-01-24T13:20:27.654Z,14.50
2018-01-24T13:23:05.788Z,14.50
2018-01-24T13:25:35.787Z,14.60
2018-01-24T13:28:06.067Z,14.50
2018-01-24T13:30:38.820Z,14.60
2018-01-24T13:33:10.193Z,14.50
2018-01-24T13:35:41.049Z,14.60
2018-01-24T13:38:11.825Z,14.70
2018-01-24T13:40:43.520Z,14.70
2018-01-24T13:43:13.895Z,14.70
2018-01-24T13:45:44.483Z,14.70
2018-01-24T13:48:14.653Z,14.70
2018-01-24T13:50:46.101Z,14.70
2018-01-24T13:53:17.257Z,14.70
2018-01-24T13:55:47.880Z,14.60
2018-01-24T13:58:18.405Z,14.60
2018-01-24T14:00:50.235Z,14.60
2018-01-24T14:03:20.341Z,14.60
2018-01-24T14:05:51.750Z,14.60
2018-01-24T14:08:23.383Z,14.60
2018-01-24T14:10:54.574Z,14.50
2018-01-24T14:13:25.535Z,14.50
2018-01-24T14:16:02.254Z,14.50
2018-01-24T14:18:33.041Z,14.50
2018-01-24T14:21:05.850Z,14.40
2018-01-24T14:23:37.144Z,14.50
2018-01-24T14:26:16.480Z,14.50
2018-01-24T14:28:53.934Z,14.50
2018-01-24T14:31:31.100Z,14.50
2018-01-24T14:34:12.236Z,14.50
2018-01-24T14:36:51.121Z,14.50
2018-01-24T14:39:21.466Z,14.40
2018-01-24T14:41:52.300Z,14.40
2018-01-24T14:44:23.556Z,14.40
2018-01-24T14:46:54.064Z,14.30
2018-01-24T14:49:24.334Z,14.30
2018-01-24T14:51:54.466Z,14.20
2018-01-24T14:54:26.149Z,14.30
2018-01-24T14:56:56.667Z,14.20
2018-01-24T14:59:27.623Z,14.20
2018-01-24T15:02:21.163Z,14.20
2018-01-24T15:05:11.382Z,14.30
2018-01-24T15:07:54.185Z,14.20
2018-01-24T15:10:24.485Z,14.20
2018-01-24T15:12:54.297Z,14.20
2018-01-24T15:15:24.148Z,14.10
2018-01-24T15:17:54.872Z,14.10
2018-01-24T15:20:24.654Z,14.10
2018-01-24T15:22:55.489Z,14.10
2018-01-24T15:25:26.536Z,14.10
2018-01-24T15:27:57.557Z,14.00
2018-01-24T15:30:30.081Z,14.00
2018-01-24T15:33:01.086Z,14.00
2018-01-24T15:35:31.536Z,13.90
2018-01-24T15:38:02.401Z,13.90
2018-01-24T15:40:33.360Z,13.90
2018-01-24T15:43:03.442Z,13.90
2018-01-24T15:45:34.212Z,13.90
2018-01-24T15:48:04.061Z,13.90
2018-01-24T15:50:34.889Z,13.90
2018-01-24T15:53:04.845Z,14.10
2018-01-24T15:55:36.111Z,14.40
2018-01-24T15:58:05.965Z,14.40
2018-01-24T16:00:47.619Z,14.50
2018-01-24T16:03:27.563Z,14.60
2018-01-24T16:06:00.375Z,14.60
2018-01-24T16:08:32.496Z,14.60
2018-01-24T16:11:02.876Z,14.60
2018-01-24T16:13:33.208Z,14.40
2018-01-24T16:16:04.032Z,14.20
2018-01-24T16:18:34.120Z,14.10
2018-01-24T16:21:04.406Z,14.10
2018-01-24T16:23:35.865Z,14.10
2018-01-24T16:26:15.937Z,14.10
2018-01-24T16:28:48.397Z,14.10
2018-01-24T16:31:20.135Z,14.10
2018-01-24T16:33:50.890Z,14.30
2018-01-24T16:36:23.179Z,14.20
2018-01-24T16:38:54.398Z,14.10
2018-01-24T16:41:25.815Z,14.10
2018-01-24T16:44:02.793Z,14.10
2018-01-24T16:46:34.359Z,14.00
2018-01-24T16:49:05.427Z,14.10
2018-01-24T16:51:36.835Z,14.10
2018-01-24T16:54:14.523Z,14.10
2018-01-24T16:56:45.298Z,14.10
2018-01-24T16:59:16.328Z,14.00
2018-01-24T17:01:48.717Z,14.00
2018-01-24T17:04:20.222Z,14.00
2018-01-24T17:06:52.533Z,14.00
2018-01-24T17:09:28.919Z,14.00
2018-01-24T17:12:04.861Z,14.00
2018-01-24T17:14:43.526Z,13.90
2018-01-24T17:17:17.165Z,13.90
2018-01-24T17:19:47.695Z,13.90
2018-01-24T17:22:18.291Z,14.00
2018-01-24T17:24:49.657Z,14.00
2018-01-24T17:27:21.865Z,14.10
2018-01-24T17:29:52.969Z,14.10
2018-01-24T17:32:24.509Z,14.10
2018-01-24T17:35:00.959Z,14.10
2018-01-24T17:37:32.185Z,14.10
2018-01-24T17:40:02.579Z,14.10
2018-01-24T17:42:32.675Z,14.00
2018-01-24T17:45:04.999Z,14.00
2018-01-24T17:47:35.236Z,14.00
2018-01-24T17:50:06.697Z,14.00
2018-01-24T17:52:43.832Z,14.00
2018-01-24T17:55:21.862Z,14.00
2018-01-24T17:57:53.704Z,13.90
2018-01-24T18:00:25.132Z,13.80
2018-01-24T18:02:56.509Z,13.80
2018-01-24T18:05:28.803Z,13.80
2018-01-24T18:08:03.214Z,13.70
2018-01-24T18:10:34.379Z,13.70
2018-01-24T18:13:05.615Z,13.70
2018-01-24T18:15:36.599Z,13.70
2018-01-24T18:18:13.690Z,13.70
2018-01-24T18:20:45.861Z,13.70
2018-01-24T18:23:24.660Z,13.70
2018-01-24T18:26:02.216Z,13.70
2018-01-24T18:28:35.018Z,13.70
2018-01-24T18:31:09.487Z,13.70
2018-01-24T18:33:41.605Z,13.80
2018-01-24T18:36:16.053Z,13.70
2018-01-24T18:38:48.001Z,13.70
2018-01-24T18:41:21.427Z,13.80
2018-01-24T18:43:59.095Z,13.80
2018-01-24T18:46:34.025Z,13.80
2018-01-24T18:49:10.484Z,13.70
2018-01-24T18:51:45.130Z,13.70
2018-01-24T18:54:17.369Z,13.70
2018-01-24T18:56:52.035Z,13.60
2018-01-24T18:59:29.812Z,13.50
2018-01-24T19:02:08.898Z,13.50
2018-01-24T19:04:47.776Z,13.50
2018-01-24T19:07:24.476Z,13.40
2018-01-24T19:10:04.038Z,13.40
2018-01-24T19:12:45.997Z,13.40
2018-01-24T19:15:27.920Z,13.30
2018-01-24T19:18:00.080Z,13.30
2018-01-24T19:20:35.189Z,13.40
2018-01-24T19:23:07.536Z,13.50
2018-01-24T19:25:40.806Z,13.50
2018-01-24T19:28:13.517Z,13.50
2018-01-24T19:30:44.476Z,13.50
2018-01-24T19:33:18.337Z,13.60
2018-01-24T19:38:39.765Z,13.50
2018-01-24T19:41:21.866Z,13.50
2018-01-24T19:44:06.060Z,13.60
2018-01-24T19:46:40.393Z,13.50
2018-01-24T19:49:14.402Z,13.60
2018-01-24T19:51:49.334Z,13.60
2018-01-24T19:54:23.769Z,13.50
2018-01-24T19:56:58.287Z,13.60
2018-01-24T19:59:38.912Z,13.60
2018-01-24T20:02:12.244Z,13.60
2018-01-24T20:04:46.356Z,13.60
2018-01-24T20:07:19.404Z,13.50
2018-01-24T20:09:55.970Z,13.50
2018-01-24T20:12:31.150Z,13.50
2018-01-24T20:15:07.562Z,13.50
2018-01-24T20:17:46.637Z,13.40
2018-01-24T20:20:28.395Z,13.40
2018-01-24T20:23:09.992Z,13.40
2018-01-24T20:25:44.956Z,13.30
2018-01-24T20:28:16.441Z,13.30
2018-01-24T20:30:49.075Z,13.20
2018-01-24T20:33:21.963Z,13.10
2018-01-24T20:35:55.021Z,13.00
2018-01-24T20:38:31.773Z,12.90
2018-01-24T20:41:08.618Z,12.90
2018-01-24T20:43:48.019Z,12.80
2018-01-24T20:46:27.799Z,12.80
2018-01-24T20:49:01.006Z,12.80
2018-01-24T20:51:34.309Z,12.90
2018-01-24T20:54:08.381Z,12.90
2018-01-24T20:56:44.156Z,12.80
2018-01-24T20:59:20.886Z,12.80
2018-01-24T21:02:07.668Z,12.80
2018-01-24T21:04:43.286Z,12.90
2018-01-24T21:07:18.911Z,12.80
2018-01-24T21:09:53.337Z,12.90
2018-01-24T21:12:35.536Z,12.90
2018-01-24T21:15:10.780Z,12.90
2018-01-24T21:17:52.035Z,13.00
2018-01-24T21:20:22.512Z,13.00
2018-01-24T21:22:57.512Z,13.00
2018-01-24T21:25:29.438Z,13.00
2018-01-24T21:28:07.938Z,13.00
2018-01-24T21:30:52.568Z,12.90
2018-01-24T21:34:02.289Z,12.90
2018-01-24T21:36:45.342Z,12.90
2018-01-24T21:39:23.279Z,12.90
2018-01-24T21:42:01.504Z,12.90
2018-01-24T21:44:33.574Z,12.90
2018-01-24T21:47:10.678Z,13.00
2018-01-24T21:49:43.078Z,13.00
2018-01-24T21:52:15.268Z,13.00
2018-01-24T21:54:47.723Z,13.00
2018-01-24T21:57:23.578Z,13.00
2018-01-24T21:59:59.316Z,13.00
2018-01-24T22:02:33.987Z,13.00
2018-01-24T22:05:04.651Z,13.10
2018-01-24T22:07:37.975Z,13.00
2018-01-24T22:10:10.800Z,13.00
2018-01-24T22:12:43.641Z,13.00
2018-01-24T22:15:14.970Z,13.00
2018-01-24T22:17:45.667Z,13.00
2018-01-24T22:20:15.681Z,13.00
2018-01-24T22:22:45.724Z,13.10
2018-01-24T22:25:17.607Z,13.20
2018-01-24T22:27:48.616Z,13.50
2018-01-24T22:30:20.437Z,13.60
2018-01-24T22:32:54.395Z,13.70
2018-01-24T22:35:31.332Z,13.70
2018-01-24T22:38:09.816Z,13.80
2018-01-24T22:40:40.887Z,13.90
2018-01-24T22:43:11.587Z,13.90
2018-01-24T22:45:43.365Z,13.90
2018-01-24T22:48:13.160Z,14.00
2018-01-24T22:50:43.772Z,14.00
2018-01-24T22:53:13.657Z,13.90
2018-01-24T22:55:45.776Z,13.90
2018-01-24T22:58:19.032Z,13.90
2018-01-24T23:00:49.224Z,14.00
2018-01-24T23:03:20.159Z,14.10
2018-01-24T23:05:51.828Z,14.00
2018-01-24T23:08:24.744Z,14.00
2018-01-24T23:10:55.940Z,14.00
2018-01-24T23:13:29.509Z,13.50
2018-01-24T23:16:04.055Z,13.50
2018-01-24T23:18:33.810Z,13.40
2018-01-24T23:22:37.793Z,13.30
2018-01-24T23:25:13.557Z,13.10
2018-01-24T23:27:46.479Z,13.00
2018-01-24T23:30:21.092Z,13.00
2018-01-24T23:32:54.540Z,13.00
2018-01-24T23:35:26.620Z,13.00
2018-01-24T23:37:56.457Z,13.00
2018-01-24T23:40:28.825Z,12.90
2018-01-24T23:42:58.726Z,12.90
2018-01-24T23:45:29.557Z,13.00
2018-01-24T23:48:00.042Z,12.90
2018-01-24T23:50:29.911Z,12.90
2018-01-24T23:53:01.078Z,12.90
2018-01-24T23:55:30.718Z,12.90
2018-01-24T23:58:01.010Z,12.90
